sensor_id;sensor_type;location;lat;lon;timestamp;pressure;altitude;pressure_sealevel;temperature;humidity
51239;BME280;38154;47.548;18.828;2022-12-07T00:01:20;98674.06;;;0.80;100.00
51239;BME280;38154;47.548;18.828;2022-12-07T00:03:47;98671.91;;;0.91;100.00
51239;BME280;38154;47.548;18.828;2022-12-07T00:06:15;98667.94;;;0.77;100.00
51239;BME280;38154;47.548;18.828;2022-12-07T00:08:41;98666.50;;;0.61;100.00
51239;BME280;38154;47.548;18.828;2022-12-07T00:11:13;98661.25;;;0.58;100.00
51239;BME280;38154;47.548;18.828;2022-12-07T00:13:40;98660.13;;;0.51;100.00
51239;BME280;38154;47.548;18.828;2022-12-07T00:16:27;98648.75;;;0.23;100.00
51239;BME280;38154;47.548;18.828;2022-12-07T00:18:53;98652.91;;;-0.02;100.00
51239;BME280;38154;47.548;18.828;2022-12-07T00:21:25;98644.50;;;-0.19;100.00
51239;BME280;38154;47.548;18.828;2022-12-07T00:23:53;98642.31;;;-0.30;100.00
51239;BME280;38154;47.548;18.828;2022-12-07T00:26:24;98643.56;;;-0.42;100.00
51239;BME280;38154;47.548;18.828;2022-12-07T00:28:53;98642.22;;;-0.53;100.00
51239;BME280;38154;47.548;18.828;2022-12-07T00:31:21;98646.13;;;-0.61;100.00
51239;BME280;38154;47.548;18.828;2022-12-07T00:33:48;98644.25;;;-0.65;100.00
51239;BME280;38154;47.548;18.828;2022-12-07T00:36:17;98643.28;;;-0.67;100.00
51239;BME280;38154;47.548;18.828;2022-12-07T00:38:43;98641.34;;;-0.73;100.00
51239;BME280;38154;47.548;18.828;2022-12-07T00:41:11;98643.50;;;-0.82;100.00
51239;BME280;38154;47.548;18.828;2022-12-07T00:43:38;98639.59;;;-0.74;100.00
51239;BME280;38154;47.548;18.828;2022-12-07T00:46:04;98639.78;;;-0.69;100.00
51239;BME280;38154;47.548;18.828;2022-12-07T00:48:30;98640.72;;;-0.67;100.00
51239;BME280;38154;47.548;18.828;2022-12-07T00:50:56;98635.97;;;-0.60;100.00
51239;BME280;38154;47.548;18.828;2022-12-07T00:53:22;98639.59;;;-0.74;100.00
51239;BME280;38154;47.548;18.828;2022-12-07T00:55:48;98640.62;;;-0.90;100.00
51239;BME280;38154;47.548;18.828;2022-12-07T00:58:14;98638.38;;;-1.02;100.00
51239;BME280;38154;47.548;18.828;2022-12-07T01:00:41;98637.03;;;-1.13;100.00
51239;BME280;38154;47.548;18.828;2022-12-07T01:03:09;98635.66;;;-1.24;100.00
51239;BME280;38154;47.548;18.828;2022-12-07T01:05:35;98624.34;;;-1.29;100.00
51239;BME280;38154;47.548;18.828;2022-12-07T01:08:02;98630.06;;;-1.35;100.00
51239;BME280;38154;47.548;18.828;2022-12-07T01:10:29;98633.56;;;-1.33;100.00
51239;BME280;38154;47.548;18.828;2022-12-07T01:12:57;98646.63;;;-1.27;100.00
51239;BME280;38154;47.548;18.828;2022-12-07T01:15:24;98646.72;;;-1.25;100.00
51239;BME280;38154;47.548;18.828;2022-12-07T01:17:49;98646.84;;;-1.22;100.00
51239;BME280;38154;47.548;18.828;2022-12-07T01:20:15;98641.22;;;-1.33;100.00
51239;BME280;38154;47.548;18.828;2022-12-07T01:22:43;98647.88;;;-1.37;100.00
51239;BME280;38154;47.548;18.828;2022-12-07T01:25:10;98653.94;;;-1.35;100.00
51239;BME280;38154;47.548;18.828;2022-12-07T01:27:36;98646.47;;;-1.12;100.00
51239;BME280;38154;47.548;18.828;2022-12-07T01:30:05;98649.41;;;-0.64;100.00
51239;BME280;38154;47.548;18.828;2022-12-07T01:32:32;98651.47;;;-0.35;100.00
51239;BME280;38154;47.548;18.828;2022-12-07T01:34:58;98638.38;;;-0.43;100.00
51239;BME280;38154;47.548;18.828;2022-12-07T01:37:24;98636.34;;;-0.50;100.00
51239;BME280;38154;47.548;18.828;2022-12-07T01:39:51;98633.09;;;-0.46;100.00
51239;BME280;38154;47.548;18.828;2022-12-07T01:42:18;98635.94;;;-0.40;100.00
51239;BME280;38154;47.548;18.828;2022-12-07T01:47:49;98631.53;;;-0.23;100.00
51239;BME280;38154;47.548;18.828;2022-12-07T01:50:17;98636.06;;;-0.16;100.00
51239;BME280;38154;47.548;18.828;2022-12-07T01:52:44;98634.53;;;0.09;100.00
51239;BME280;38154;47.548;18.828;2022-12-07T01:55:13;98623.00;;;0.20;100.00
51239;BME280;38154;47.548;18.828;2022-12-07T01:57:43;98627.50;;;0.26;100.00
51239;BME280;38154;47.548;18.828;2022-12-07T02:00:11;98623.78;;;0.40;100.00
51239;BME280;38154;47.548;18.828;2022-12-07T02:02:42;98618.50;;;0.58;100.00
51239;BME280;38154;47.548;18.828;2022-12-07T02:05:09;98622.66;;;0.79;100.00
51239;BME280;38154;47.548;18.828;2022-12-07T02:07:37;98621.56;;;0.95;100.00
51239;BME280;38154;47.548;18.828;2022-12-07T02:12:39;98616.94;;;1.08;100.00
51239;BME280;38154;47.548;18.828;2022-12-07T02:15:06;98615.50;;;0.92;100.00
51239;BME280;38154;47.548;18.828;2022-12-07T02:17:40;98619.69;;;0.90;100.00
51239;BME280;38154;47.548;18.828;2022-12-07T02:20:13;98622.97;;;0.86;100.00
51239;BME280;38154;47.548;18.828;2022-12-07T02:23:21;98623.78;;;0.85;100.00
51239;BME280;38154;47.548;18.828;2022-12-07T02:31:23;98612.47;;;1.03;100.00
51239;BME280;38154;47.548;18.828;2022-12-07T02:33:57;98620.41;;;1.10;100.00
51239;BME280;38154;47.548;18.828;2022-12-07T02:36:33;98614.91;;;1.24;100.00
51239;BME280;38154;47.548;18.828;2022-12-07T02:39:17;98616.22;;;1.37;100.00
51239;BME280;38154;47.548;18.828;2022-12-07T02:41:51;98614.56;;;1.39;100.00
51239;BME280;38154;47.548;18.828;2022-12-07T02:44:20;98614.13;;;1.51;100.00
51239;BME280;38154;47.548;18.828;2022-12-07T02:47:00;98607.38;;;1.54;100.00
51239;BME280;38154;47.548;18.828;2022-12-07T02:49:27;98608.47;;;1.61;100.00
51239;BME280;38154;47.548;18.828;2022-12-07T02:51:54;98609.53;;;1.66;100.00
51239;BME280;38154;47.548;18.828;2022-12-07T02:54:21;98601.91;;;1.69;100.00
51239;BME280;38154;47.548;18.828;2022-12-07T03:10:40;98601.81;;;1.92;100.00
51239;BME280;38154;47.548;18.828;2022-12-07T03:13:23;98594.03;;;1.90;100.00
51239;BME280;38154;47.548;18.828;2022-12-07T03:18:40;98586.47;;;1.95;100.00
51239;BME280;38154;47.548;18.828;2022-12-07T03:21:13;98584.09;;;2.01;100.00
51239;BME280;38154;47.548;18.828;2022-12-07T03:23:42;98585.59;;;1.94;100.00
51239;BME280;38154;47.548;18.828;2022-12-07T03:26:12;98589.00;;;1.93;100.00
51239;BME280;38154;47.548;18.828;2022-12-07T03:28:43;98590.03;;;1.98;100.00
51239;BME280;38154;47.548;18.828;2022-12-07T03:36:26;98611.31;;;1.94;100.00
51239;BME280;38154;47.548;18.828;2022-12-07T03:38:59;98608.59;;;1.90;100.00
51239;BME280;38154;47.548;18.828;2022-12-07T03:41:31;98623.91;;;1.87;100.00
51239;BME280;38154;47.548;18.828;2022-12-07T03:43:58;98620.44;;;1.84;100.00
51239;BME280;38154;47.548;18.828;2022-12-07T03:51:28;98621.75;;;1.73;100.00
51239;BME280;38154;47.548;18.828;2022-12-07T03:54:10;98611.97;;;1.89;100.00
51239;BME280;38154;47.548;18.828;2022-12-07T03:56:38;98617.50;;;2.01;100.00
51239;BME280;38154;47.548;18.828;2022-12-07T03:59:05;98608.66;;;1.91;100.00
51239;BME280;38154;47.548;18.828;2022-12-07T04:01:31;98611.00;;;1.85;100.00
51239;BME280;38154;47.548;18.828;2022-12-07T04:03:57;98615.56;;;1.94;100.00
51239;BME280;38154;47.548;18.828;2022-12-07T04:06:23;98626.50;;;1.87;100.00
51239;BME280;38154;47.548;18.828;2022-12-07T04:08:49;98623.59;;;1.77;100.00
51239;BME280;38154;47.548;18.828;2022-12-07T04:11:15;98618.16;;;1.68;100.00
51239;BME280;38154;47.548;18.828;2022-12-07T04:13:41;98617.31;;;1.69;100.00
51239;BME280;38154;47.548;18.828;2022-12-07T04:16:25;98625.75;;;1.65;100.00
51239;BME280;38154;47.548;18.828;2022-12-07T04:18:51;98618.75;;;1.61;100.00
51239;BME280;38154;47.548;18.828;2022-12-07T04:21:17;98623.69;;;1.55;100.00
51239;BME280;38154;47.548;18.828;2022-12-07T04:23:42;98619.38;;;1.54;100.00
51239;BME280;38154;47.548;18.828;2022-12-07T04:26:08;98621.13;;;1.55;100.00
51239;BME280;38154;47.548;18.828;2022-12-07T04:28:34;98619.72;;;1.63;100.00
51239;BME280;38154;47.548;18.828;2022-12-07T04:31:00;98619.13;;;1.72;100.00
51239;BME280;38154;47.548;18.828;2022-12-07T04:33:26;98624.38;;;1.75;100.00
51239;BME280;38154;47.548;18.828;2022-12-07T04:35:52;98619.88;;;1.69;100.00
51239;BME280;38154;47.548;18.828;2022-12-07T04:38:18;98620.69;;;1.66;100.00
51239;BME280;38154;47.548;18.828;2022-12-07T04:40:43;98613.94;;;1.70;100.00
51239;BME280;38154;47.548;18.828;2022-12-07T04:43:09;98610.62;;;1.74;100.00
51239;BME280;38154;47.548;18.828;2022-12-07T04:45:35;98616.50;;;1.70;100.00
51239;BME280;38154;47.548;18.828;2022-12-07T04:48:01;98618.06;;;1.65;100.00
51239;BME280;38154;47.548;18.828;2022-12-07T04:50:27;98615.38;;;1.62;100.00
51239;BME280;38154;47.548;18.828;2022-12-07T04:52:53;98613.94;;;1.70;100.00
51239;BME280;38154;47.548;18.828;2022-12-07T04:55:18;98612.56;;;1.80;100.00
51239;BME280;38154;47.548;18.828;2022-12-07T04:57:44;98611.53;;;1.75;100.00
51239;BME280;38154;47.548;18.828;2022-12-07T05:00:11;98611.00;;;1.85;100.00
51239;BME280;38154;47.548;18.828;2022-12-07T05:02:36;98599.06;;;1.87;100.00
51239;BME280;38154;47.548;18.828;2022-12-07T05:05:02;98591.56;;;1.93;100.00
51239;BME280;38154;47.548;18.828;2022-12-07T05:07:28;98604.38;;;1.92;100.00
51239;BME280;38154;47.548;18.828;2022-12-07T05:09:54;98602.50;;;1.88;100.00
51239;BME280;38154;47.548;18.828;2022-12-07T05:12:20;98596.34;;;1.82;100.00
51239;BME280;38154;47.548;18.828;2022-12-07T05:14:46;98603.09;;;1.79;100.00
51239;BME280;38154;47.548;18.828;2022-12-07T05:17:12;98607.25;;;1.75;100.00
51239;BME280;38154;47.548;18.828;2022-12-07T05:19:37;98603.78;;;1.73;100.00
51239;BME280;38154;47.548;18.828;2022-12-07T05:22:03;98609.66;;;1.71;100.00
51239;BME280;38154;47.548;18.828;2022-12-07T05:24:29;98612.09;;;1.66;100.00
51239;BME280;38154;47.548;18.828;2022-12-07T05:26:55;98612.09;;;1.66;100.00
51239;BME280;38154;47.548;18.828;2022-12-07T05:29:21;98612.91;;;1.65;100.00
51239;BME280;38154;47.548;18.828;2022-12-07T05:31:47;98609.44;;;1.63;100.00
51239;BME280;38154;47.548;18.828;2022-12-07T05:34:13;98610.34;;;1.65;100.00
51239;BME280;38154;47.548;18.828;2022-12-07T05:36:39;98607.78;;;1.65;100.00
51239;BME280;38154;47.548;18.828;2022-12-07T05:39:05;98601.81;;;1.66;100.00
51239;BME280;38154;47.548;18.828;2022-12-07T05:41:31;98609.44;;;1.63;100.00
51239;BME280;38154;47.548;18.828;2022-12-07T05:44:32;98608.47;;;1.61;100.00
51239;BME280;38154;47.548;18.828;2022-12-07T05:46:58;98607.19;;;1.74;100.00
51239;BME280;38154;47.548;18.828;2022-12-07T05:49:23;98608.91;;;1.73;100.00
51239;BME280;38154;47.548;18.828;2022-12-07T05:51:49;98605.50;;;1.74;100.00
51239;BME280;38154;47.548;18.828;2022-12-07T05:54:15;98604.53;;;1.71;100.00
51239;BME280;38154;47.548;18.828;2022-12-07T05:56:41;98612.28;;;1.72;100.00
51239;BME280;38154;47.548;18.828;2022-12-07T05:59:08;98604.78;;;1.78;100.00
51239;BME280;38154;47.548;18.828;2022-12-07T06:01:56;98610.75;;;1.77;100.00
51239;BME280;38154;47.548;18.828;2022-12-07T06:04:23;98602.91;;;1.73;100.00
51239;BME280;38154;47.548;18.828;2022-12-07T06:06:50;98611.44;;;1.72;100.00
51239;BME280;38154;47.548;18.828;2022-12-07T06:09:17;98617.59;;;1.77;100.00
51239;BME280;38154;47.548;18.828;2022-12-07T06:11:44;98617.69;;;1.80;100.00
51239;BME280;38154;47.548;18.828;2022-12-07T06:14:28;98617.66;;;1.78;100.00
51239;BME280;38154;47.548;18.828;2022-12-07T06:16:54;98612.22;;;1.71;100.00
51239;BME280;38154;47.548;18.828;2022-12-07T06:19:21;98612.13;;;1.67;100.00
51239;BME280;38154;47.548;18.828;2022-12-07T06:21:47;98606.91;;;1.64;100.00
51239;BME280;38154;47.548;18.828;2022-12-07T06:24:14;98618.81;;;1.62;100.00
51239;BME280;38154;47.548;18.828;2022-12-07T06:26:41;98617.19;;;1.64;100.00
51239;BME280;38154;47.548;18.828;2022-12-07T06:29:08;98614.66;;;1.66;100.00
51239;BME280;38154;47.548;18.828;2022-12-07T06:31:35;98617.19;;;1.64;100.00
51239;BME280;38154;47.548;18.828;2022-12-07T06:34:01;98616.47;;;1.69;100.00
51239;BME280;38154;47.548;18.828;2022-12-07T06:36:27;98619.34;;;1.78;100.00
51239;BME280;38154;47.548;18.828;2022-12-07T06:38:53;98619.44;;;1.81;100.00
51239;BME280;38154;47.548;18.828;2022-12-07T06:41:19;98622.78;;;1.78;100.00
51239;BME280;38154;47.548;18.828;2022-12-07T06:43:45;98628.78;;;1.79;100.00
51239;BME280;38154;47.548;18.828;2022-12-07T06:46:11;98635.69;;;1.80;100.00
51239;BME280;38154;47.548;18.828;2022-12-07T06:48:37;98633.88;;;1.77;100.00
51239;BME280;38154;47.548;18.828;2022-12-07T06:51:03;98632.22;;;1.78;100.00
51239;BME280;38154;47.548;18.828;2022-12-07T06:53:29;98630.72;;;1.84;100.00
51239;BME280;38154;47.548;18.828;2022-12-07T06:55:55;98621.28;;;1.85;100.00
51239;BME280;38154;47.548;18.828;2022-12-07T06:58:20;98624.84;;;1.89;100.00
51239;BME280;38154;47.548;18.828;2022-12-07T07:00:48;98619.69;;;1.89;100.00
51239;BME280;38154;47.548;18.828;2022-12-07T07:03:15;98615.69;;;1.97;100.00
51239;BME280;38154;47.548;18.828;2022-12-07T07:05:41;98624.31;;;1.99;100.00
51239;BME280;38154;47.548;18.828;2022-12-07T07:08:07;98624.38;;;2.00;100.00
51239;BME280;38154;47.548;18.828;2022-12-07T07:10:34;98634.88;;;2.07;100.00
51239;BME280;38154;47.548;18.828;2022-12-07T07:13:00;98633.38;;;2.13;100.00
51239;BME280;38154;47.548;18.828;2022-12-07T07:15:26;98625.75;;;2.16;100.00
51239;BME280;38154;47.548;18.828;2022-12-07T07:17:52;98628.72;;;2.29;100.00
51239;BME280;38154;47.548;18.828;2022-12-07T07:20:18;98637.66;;;2.40;100.00
51239;BME280;38154;47.548;18.828;2022-12-07T07:22:44;98633.03;;;2.30;100.00
51239;BME280;38154;47.548;18.828;2022-12-07T07:25:10;98631.22;;;2.27;100.00
51239;BME280;38154;47.548;18.828;2022-12-07T07:27:36;98641.78;;;2.35;100.00
51239;BME280;38154;47.548;18.828;2022-12-07T07:30:02;98635.06;;;2.40;100.00
51239;BME280;38154;47.548;18.828;2022-12-07T07:32:28;98632.41;;;2.37;100.00
51239;BME280;38154;47.548;18.828;2022-12-07T07:34:54;98633.47;;;2.44;100.00
51239;BME280;38154;47.548;18.828;2022-12-07T07:37:20;98632.09;;;2.55;100.00
51239;BME280;38154;47.548;18.828;2022-12-07T07:39:46;98636.56;;;2.60;100.00
51239;BME280;38154;47.548;18.828;2022-12-07T07:42:11;98626.47;;;2.67;100.00
51239;BME280;38154;47.548;18.828;2022-12-07T07:44:37;98633.53;;;2.74;100.00
51239;BME280;38154;47.548;18.828;2022-12-07T07:47:03;98626.72;;;2.76;100.00
51239;BME280;38154;47.548;18.828;2022-12-07T07:49:29;98636.66;;;2.92;100.00
51239;BME280;38154;47.548;18.828;2022-12-07T07:51:55;98623.91;;;2.97;100.00
51239;BME280;38154;47.548;18.828;2022-12-07T07:54:21;98629.16;;;3.02;100.00
51239;BME280;38154;47.548;18.828;2022-12-07T07:56:47;98621.25;;;3.24;100.00
51239;BME280;38154;47.548;18.828;2022-12-07T07:59:12;98637.22;;;3.43;100.00
51239;BME280;38154;47.548;18.828;2022-12-07T08:01:39;98637.63;;;3.58;100.00
51239;BME280;38154;47.548;18.828;2022-12-07T08:04:05;98645.75;;;3.74;100.00
51239;BME280;38154;47.548;18.828;2022-12-07T08:06:31;98647.16;;;3.94;100.00
51239;BME280;38154;47.548;18.828;2022-12-07T08:08:57;98644.06;;;4.07;100.00
51239;BME280;38154;47.548;18.828;2022-12-07T08:11:24;98639.38;;;4.27;100.00
51239;BME280;38154;47.548;18.828;2022-12-07T08:13:50;98639.91;;;4.51;100.00
51239;BME280;38154;47.548;18.828;2022-12-07T08:16:16;98643.06;;;4.75;100.00
51239;BME280;38154;47.548;18.828;2022-12-07T08:18:42;98652.75;;;4.86;100.00
51239;BME280;38154;47.548;18.828;2022-12-07T08:21:13;98659.37;;;5.14;100.00
51239;BME280;38154;47.548;18.828;2022-12-07T08:23:40;98665.31;;;5.51;100.00
51239;BME280;38154;47.548;18.828;2022-12-07T08:26:08;98665.13;;;5.87;100.00
51239;BME280;38154;47.548;18.828;2022-12-07T08:28:34;98661.78;;;5.93;100.00
51239;BME280;38154;47.548;18.828;2022-12-07T08:31:07;98661.16;;;6.05;100.00
51239;BME280;38154;47.548;18.828;2022-12-07T08:33:34;98664.12;;;6.26;100.00
51239;BME280;38154;47.548;18.828;2022-12-07T08:36:02;98654.47;;;6.71;100.00
51239;BME280;38154;47.548;18.828;2022-12-07T08:38:28;98661.09;;;7.13;100.00
51239;BME280;38154;47.548;18.828;2022-12-07T08:40:55;98657.00;;;7.31;100.00
51239;BME280;38154;47.548;18.828;2022-12-07T08:43:21;98658.38;;;7.74;100.00
51239;BME280;38154;47.548;18.828;2022-12-07T08:48:54;98675.41;;;7.51;100.00
51239;BME280;38154;47.548;18.828;2022-12-07T08:51:22;98677.38;;;7.73;100.00
51239;BME280;38154;47.548;18.828;2022-12-07T08:53:50;98666.78;;;7.53;100.00
51239;BME280;38154;47.548;18.828;2022-12-07T08:56:20;98667.66;;;7.55;100.00
51239;BME280;38154;47.548;18.828;2022-12-07T08:58:47;98663.09;;;7.34;100.00
51239;BME280;38154;47.548;18.828;2022-12-07T09:01:14;98665.72;;;7.36;100.00
51239;BME280;38154;47.548;18.828;2022-12-07T09:03:40;98664.84;;;7.37;100.00
51239;BME280;38154;47.548;18.828;2022-12-07T09:06:06;98664.03;;;7.41;100.00
51239;BME280;38154;47.548;18.828;2022-12-07T09:08:38;98663.69;;;7.87;100.00
51239;BME280;38154;47.548;18.828;2022-12-07T09:11:06;98662.81;;;8.89;100.00
51239;BME280;38154;47.548;18.828;2022-12-07T09:13:32;98657.06;;;9.49;100.00
51239;BME280;38154;47.548;18.828;2022-12-07T09:15:57;98665.81;;;9.81;99.82
51239;BME280;38154;47.548;18.828;2022-12-07T09:18:23;98658.97;;;10.42;93.55
51239;BME280;38154;47.548;18.828;2022-12-07T09:20:50;98651.84;;;11.33;86.20
51239;BME280;38154;47.548;18.828;2022-12-07T09:23:16;98653.63;;;12.68;80.89
51239;BME280;38154;47.548;18.828;2022-12-07T09:25:42;98649.97;;;12.87;78.65
51239;BME280;38154;47.548;18.828;2022-12-07T09:28:08;98648.00;;;12.10;78.44
51239;BME280;38154;47.548;18.828;2022-12-07T09:30:34;98646.72;;;11.12;81.82
51239;BME280;38154;47.548;18.828;2022-12-07T09:33:00;98638.94;;;10.92;85.46
51239;BME280;38154;47.548;18.828;2022-12-07T09:35:26;98649.41;;;10.24;85.37
51239;BME280;38154;47.548;18.828;2022-12-07T09:37:52;98640.66;;;9.93;89.02
51239;BME280;38154;47.548;18.828;2022-12-07T09:40:20;98643.03;;;9.17;94.75
51239;BME280;38154;47.548;18.828;2022-12-07T09:42:49;98632.38;;;8.71;93.85
51239;BME280;38154;47.548;18.828;2022-12-07T09:45:21;98627.72;;;8.30;99.92
51239;BME280;38154;47.548;18.828;2022-12-07T09:47:48;98628.53;;;8.24;100.00
51239;BME280;38154;47.548;18.828;2022-12-07T09:50:16;98632.13;;;8.40;99.06
51239;BME280;38154;47.548;18.828;2022-12-07T09:52:44;98636.66;;;8.64;97.09
51239;BME280;38154;47.548;18.828;2022-12-07T09:55:13;98639.91;;;8.40;100.00
51239;BME280;38154;47.548;18.828;2022-12-07T09:57:39;98652.53;;;7.98;100.00
51239;BME280;38154;47.548;18.828;2022-12-07T10:00:15;98640.19;;;7.73;100.00
51239;BME280;38154;47.548;18.828;2022-12-07T10:02:47;98643.22;;;7.36;100.00
51239;BME280;38154;47.548;18.828;2022-12-07T10:05:20;98643.87;;;7.20;100.00
51239;BME280;38154;47.548;18.828;2022-12-07T10:07:54;98644.66;;;7.13;100.00
51239;BME280;38154;47.548;18.828;2022-12-07T10:10:32;98630.19;;;7.30;100.00
51239;BME280;38154;47.548;18.828;2022-12-07T10:13:09;98630.03;;;7.18;100.00
51239;BME280;38154;47.548;18.828;2022-12-07T10:18:37;98623.38;;;7.40;100.00
51239;BME280;38154;47.548;18.828;2022-12-07T10:21:16;98611.91;;;7.19;100.00
51239;BME280;38154;47.548;18.828;2022-12-07T10:29:33;98603.53;;;7.43;100.00
51239;BME280;38154;47.548;18.828;2022-12-07T10:32:23;98603.41;;;7.31;100.00
51239;BME280;38154;47.548;18.828;2022-12-07T10:34:51;98610.03;;;7.08;100.00
51239;BME280;38154;47.548;18.828;2022-12-07T10:37:40;98604.88;;;7.09;100.00
51239;BME280;38154;47.548;18.828;2022-12-07T10:40:24;98613.63;;;7.20;100.00
51239;BME280;38154;47.548;18.828;2022-12-07T10:43:26;98605.94;;;7.28;100.00
51239;BME280;38154;47.548;18.828;2022-12-07T10:46:33;98605.47;;;7.63;100.00
51239;BME280;38154;47.548;18.828;2022-12-07T10:49:23;98603.97;;;7.87;100.00
51239;BME280;38154;47.548;18.828;2022-12-07T10:52:02;98603.78;;;7.67;100.00
51239;BME280;38154;47.548;18.828;2022-12-07T11:00:09;98594.88;;;7.43;100.00
51239;BME280;38154;47.548;18.828;2022-12-07T11:03:02;98590.56;;;7.43;100.00
51239;BME280;38154;47.548;18.828;2022-12-07T11:05:39;98597.47;;;7.43;100.00
51239;BME280;38154;47.548;18.828;2022-12-07T11:11:06;98588.16;;;6.85;100.00
51239;BME280;38154;47.548;18.828;2022-12-07T11:13:44;98596.81;;;6.87;100.00
51239;BME280;38154;47.548;18.828;2022-12-07T11:16:23;98588.94;;;6.80;100.00
51239;BME280;38154;47.548;18.828;2022-12-07T11:25:00;98589.03;;;6.86;100.00
51239;BME280;38154;47.548;18.828;2022-12-07T11:27:34;98595.03;;;6.85;100.00
51239;BME280;38154;47.548;18.828;2022-12-07T11:30:28;98584.00;;;7.00;100.00
51239;BME280;38154;47.548;18.828;2022-12-07T11:33:32;98596.16;;;7.04;100.00
51239;BME280;38154;47.548;18.828;2022-12-07T11:36:33;98595.12;;;6.91;100.00
51239;BME280;38154;47.548;18.828;2022-12-07T11:39:08;98602.88;;;6.88;100.00
51239;BME280;38154;47.548;18.828;2022-12-07T11:41:39;98597.53;;;6.76;100.00
51239;BME280;38154;47.548;18.828;2022-12-07T11:44:22;98598.16;;;6.59;100.00
51239;BME280;38154;47.548;18.828;2022-12-07T11:46:57;98599.78;;;6.53;100.00
51239;BME280;38154;47.548;18.828;2022-12-07T11:49:53;98593.56;;;6.41;100.00
51239;BME280;38154;47.548;18.828;2022-12-07T12:00:41;98573.00;;;6.50;100.00
51239;BME280;38154;47.548;18.828;2022-12-07T12:03:13;98577.22;;;6.44;100.00
51239;BME280;38154;47.548;18.828;2022-12-07T12:05:41;98559.72;;;6.27;100.00
51239;BME280;38154;47.548;18.828;2022-12-07T12:08:38;98551.84;;;6.21;100.00
51239;BME280;38154;47.548;18.828;2022-12-07T12:11:11;98549.91;;;6.08;100.00
51239;BME280;38154;47.548;18.828;2022-12-07T12:17:04;98547.25;;;6.03;100.00
51239;BME280;38154;47.548;18.828;2022-12-07T12:19:59;98548.41;;;6.22;100.00
51239;BME280;38154;47.548;18.828;2022-12-07T12:22:36;98545.78;;;6.19;100.00
51239;BME280;38154;47.548;18.828;2022-12-07T12:25:06;98531.53;;;5.92;100.00
51239;BME280;38154;47.548;18.828;2022-12-07T12:27:37;98539.22;;;5.89;100.00
51239;BME280;38154;47.548;18.828;2022-12-07T12:30:07;98546.81;;;5.77;100.00
51239;BME280;38154;47.548;18.828;2022-12-07T12:32:50;98542.28;;;5.64;100.00
51239;BME280;38154;47.548;18.828;2022-12-07T12:37:54;98536.81;;;5.47;100.00
51239;BME280;38154;47.548;18.828;2022-12-07T12:42:54;98529.87;;;5.46;100.00
51239;BME280;38154;47.548;18.828;2022-12-07T12:45:30;98527.22;;;5.41;100.00
51239;BME280;38154;47.548;18.828;2022-12-07T12:48:00;98528.94;;;5.41;100.00
51239;BME280;38154;47.548;18.828;2022-12-07T12:50:28;98537.34;;;5.29;100.00
51239;BME280;38154;47.548;18.828;2022-12-07T12:53:12;98537.56;;;5.43;100.00
51239;BME280;38154;47.548;18.828;2022-12-07T13:00:45;98550.00;;;5.15;100.00
51239;BME280;38154;47.548;18.828;2022-12-07T13:03:26;98547.44;;;5.15;100.00
51239;BME280;38154;47.548;18.828;2022-12-07T13:06:18;98545.59;;;5.11;100.00
51239;BME280;38154;47.548;18.828;2022-12-07T13:08:45;98554.16;;;5.07;100.00
51239;BME280;38154;47.548;18.828;2022-12-07T13:11:37;98548.81;;;4.99;100.00
51239;BME280;38154;47.548;18.828;2022-12-07T13:17:00;98544.13;;;4.78;100.00
51239;BME280;38154;47.548;18.828;2022-12-07T13:28:13;98541.34;;;4.70;100.00
51239;BME280;38154;47.548;18.828;2022-12-07T13:30:57;98532.03;;;4.77;100.00
51239;BME280;38154;47.548;18.828;2022-12-07T13:33:27;98545.56;;;4.65;100.00
51239;BME280;38154;47.548;18.828;2022-12-07T13:35:55;98543.28;;;4.39;100.00
51239;BME280;38154;47.548;18.828;2022-12-07T13:38:23;98543.06;;;4.30;100.00
51239;BME280;38154;47.548;18.828;2022-12-07T13:43:30;98545.69;;;4.32;100.00
51239;BME280;38154;47.548;18.828;2022-12-07T13:45:59;98551.81;;;4.37;100.00
51239;BME280;38154;47.548;18.828;2022-12-07T13:48:55;98559.78;;;4.46;100.00
51239;BME280;38154;47.548;18.828;2022-12-07T13:51:24;98555.66;;;4.54;100.00
51239;BME280;38154;47.548;18.828;2022-12-07T13:53:55;98561.66;;;4.53;100.00
51239;BME280;38154;47.548;18.828;2022-12-07T13:56:23;98561.06;;;4.65;100.00
51239;BME280;38154;47.548;18.828;2022-12-07T13:58:51;98561.22;;;4.73;100.00
51239;BME280;38154;47.548;18.828;2022-12-07T14:01:17;98560.22;;;4.66;100.00
51239;BME280;38154;47.548;18.828;2022-12-07T14:03:43;98563.13;;;4.81;100.00
51239;BME280;38154;47.548;18.828;2022-12-07T14:06:25;98556.12;;;4.77;100.00
51239;BME280;38154;47.548;18.828;2022-12-07T14:09:18;98560.41;;;4.75;100.00
51239;BME280;38154;47.548;18.828;2022-12-07T14:11:47;98559.16;;;4.56;100.00
51239;BME280;38154;47.548;18.828;2022-12-07T14:14:17;98556.44;;;4.50;100.00
51239;BME280;38154;47.548;18.828;2022-12-07T14:16:43;98555.22;;;4.34;100.00
51239;BME280;38154;47.548;18.828;2022-12-07T14:19:41;98553.97;;;4.17;100.00
51239;BME280;38154;47.548;18.828;2022-12-07T14:22:09;98554.31;;;3.94;100.00
51239;BME280;38154;47.548;18.828;2022-12-07T14:24:43;98559.41;;;3.93;100.00
51239;BME280;38154;47.548;18.828;2022-12-07T14:27:18;98555.84;;;3.87;100.00
51239;BME280;38154;47.548;18.828;2022-12-07T14:29:45;98551.13;;;3.69;100.00
51239;BME280;38154;47.548;18.828;2022-12-07T14:32:25;98545.69;;;3.59;100.00
51239;BME280;38154;47.548;18.828;2022-12-07T14:37:25;98554.41;;;3.30;100.00
51239;BME280;38154;47.548;18.828;2022-12-07T14:39:51;98559.81;;;3.40;100.00
51239;BME280;38154;47.548;18.828;2022-12-07T14:42:17;98559.63;;;3.32;100.00
51239;BME280;38154;47.548;18.828;2022-12-07T14:44:43;98565.59;;;3.31;100.00
51239;BME280;38154;47.548;18.828;2022-12-07T14:47:10;98567.87;;;3.20;100.00
51239;BME280;38154;47.548;18.828;2022-12-07T14:49:36;98570.47;;;2.90;100.00